Time;durP1;ratioP1;P1;durP2;ratioP2;P2;SDS_P1;SDS_P2;PMS_P1;PMS_P2;Temp;Humidity;BMP_temperature;BMP_pressure;BME280_temperature;BME280_humidity;BME280_pressure;Samples;Min_cycle;Max_cycle;Signal;HPM_P1;HPM_P2
2020/12/23 00:00:44;;;;;;;20.85;16.27;;;;;;;13.67;64.92;101394.31;5053481;28;20081;-86
2020/12/23 00:03:10;;;;;;;25.00;18.15;;;;;;;13.74;65.12;101404.22;5045227;28;20036;-85
2020/12/23 00:05:35;;;;;;;25.42;18.52;;;;;;;13.74;65.01;101397.94;5078915;28;20043;-86
2020/12/23 00:08:01;;;;;;;23.17;16.88;;;;;;;13.73;65.12;101398.97;5032843;28;20056;-86
2020/12/23 00:10:26;;;;;;;20.50;15.75;;;;;;;13.76;65.03;101384.88;5048522;28;20519;-85
2020/12/23 00:12:51;;;;;;;20.77;14.73;;;;;;;13.74;65.11;101387.00;5035074;28;20494;-86
2020/12/23 00:15:17;;;;;;;22.80;17.00;;;;;;;13.82;64.95;101397.75;5048850;28;20123;-86
2020/12/23 00:17:42;;;;;;;25.45;17.17;;;;;;;13.75;64.97;101385.97;5067304;28;20254;-87
2020/12/23 00:20:08;;;;;;;19.58;16.42;;;;;;;13.81;64.80;101384.28;5049642;28;20360;-87
2020/12/23 00:22:33;;;;;;;19.27;15.45;;;;;;;13.82;65.04;101383.25;5068977;28;20089;-85
2020/12/23 00:24:59;;;;;;;24.25;17.90;;;;;;;13.84;65.14;101390.19;5086350;28;20081;-86
2020/12/23 00:27:24;;;;;;;23.50;17.15;;;;;;;13.82;64.98;101384.06;5082011;28;20047;-85
2020/12/23 00:29:50;;;;;;;29.52;21.25;;;;;;;13.74;65.01;101365.13;5066518;28;20028;-85
2020/12/23 00:32:19;;;;;;;25.52;18.50;;;;;;;13.79;65.21;101368.94;5046362;28;20123;-87
2020/12/23 00:34:45;;;;;;;29.00;19.17;;;;;;;13.74;65.28;101362.38;5054454;28;20051;-88
2020/12/23 00:37:11;;;;;;;29.08;19.77;;;;;;;13.70;65.16;101344.69;5082414;28;20229;-87
2020/12/23 00:39:36;;;;;;;32.13;19.40;;;;;;;13.75;65.40;101353.16;5072089;28;20680;-87
2020/12/23 00:42:02;;;;;;;31.10;18.88;;;;;;;13.73;65.06;101358.81;5056494;28;20032;-85
2020/12/23 00:44:28;;;;;;;23.48;17.90;;;;;;;13.72;65.05;101359.84;5065021;28;20032;-86
2020/12/23 00:46:53;;;;;;;28.42;19.38;;;;;;;13.76;65.16;101355.69;5042590;28;20036;-85
2020/12/23 00:49:18;;;;;;;31.30;18.80;;;;;;;13.73;65.14;101347.03;5074678;28;20150;-85
2020/12/23 00:51:44;;;;;;;27.30;18.40;;;;;;;13.69;65.06;101354.81;5081242;28;20038;-86
2020/12/23 00:54:09;;;;;;;28.33;19.05;;;;;;;13.75;65.13;101356.72;5050402;28;20032;-86
2020/12/23 00:56:35;;;;;;;30.88;19.55;;;;;;;13.61;65.17;101336.69;5050568;28;20035;-86
2020/12/23 00:59:00;;;;;;;28.67;20.05;;;;;;;13.72;65.17;101334.44;5082588;28;20039;-86
2020/12/23 01:01:25;;;;;;;27.85;20.98;;;;;;;13.63;65.24;101325.56;5044324;28;20066;-86
2020/12/23 01:03:51;;;;;;;29.83;19.95;;;;;;;13.74;65.33;101337.78;5045199;28;20634;-86
2020/12/23 01:06:16;;;;;;;23.08;18.80;;;;;;;13.69;65.23;101337.56;5048909;28;20039;-86
2020/12/23 01:08:42;;;;;;;25.25;19.10;;;;;;;13.74;65.19;101351.44;5078928;28;20028;-86
2020/12/23 01:11:10;;;;;;;31.17;19.52;;;;;;;13.71;65.24;101346.41;5050854;28;20128;-86
2020/12/23 01:13:35;;;;;;;28.02;19.40;;;;;;;13.80;65.14;101361.56;5043945;28;20585;-86
2020/12/23 01:16:01;;;;;;;23.58;16.92;;;;;;;13.81;65.02;101352.34;5030640;28;20044;-87
2020/12/23 01:18:27;;;;;;;26.92;18.05;;;;;;;13.79;65.03;101338.00;5061434;28;20035;-87
2020/12/23 01:20:52;;;;;;;30.63;20.38;;;;;;;13.78;65.10;101352.75;5064864;28;20040;-85
2020/12/23 01:23:18;;;;;;;32.03;22.48;;;;;;;13.74;65.06;101335.06;5065183;28;20504;-86
2020/12/23 01:25:43;;;;;;;32.28;18.90;;;;;;;13.82;65.24;101336.75;5060969;28;20133;-86
2020/12/23 01:28:09;;;;;;;30.63;19.60;;;;;;;13.81;65.27;101325.00;5079731;28;20559;-86
2020/12/23 01:30:34;;;;;;;27.83;19.83;;;;;;;13.67;65.01;101299.50;5060228;28;20059;-85
2020/12/23 01:33:00;;;;;;;28.80;20.25;;;;;;;13.74;65.25;101313.19;5083581;28;20023;-85
2020/12/23 01:35:25;;;;;;;28.48;21.30;;;;;;;13.76;64.94;101322.88;5051589;28;20058;-86
2020/12/23 01:37:50;;;;;;;35.15;23.35;;;;;;;13.75;65.02;101320.34;5048345;28;20024;-86
2020/12/23 01:40:16;;;;;;;31.42;16.85;;;;;;;13.75;65.18;101336.75;5056367;28;20020;-85
2020/12/23 01:42:41;;;;;;;28.30;17.08;;;;;;;13.77;64.84;101340.94;5065578;28;20402;-88
2020/12/23 01:45:07;;;;;;;29.73;19.75;;;;;;;13.74;65.19;101335.06;5082647;28;20374;-86
2020/12/23 01:47:34;;;;;;;32.67;20.45;;;;;;;13.66;65.22;101321.56;5057763;28;20050;-88
2020/12/23 01:50:00;;;;;;;31.90;20.00;;;;;;;13.76;65.30;101331.06;5061016;28;20393;-85
2020/12/23 01:52:26;;;;;;;30.60;19.83;;;;;;;13.72;65.38;101316.13;5062568;28;20446;-87
2020/12/23 01:54:53;;;;;;;31.95;21.48;;;;;;;13.76;65.27;101319.28;5064264;28;20039;-87
2020/12/23 01:57:19;;;;;;;39.65;25.35;;;;;;;13.78;65.48;101319.94;5059323;28;20077;-86
2020/12/23 01:59:45;;;;;;;43.95;28.02;;;;;;;13.77;65.57;101318.25;5083162;28;20444;-87
2020/12/23 02:02:31;;;;;;;44.85;26.65;;;;;;;13.83;65.66;101316.59;5049101;28;20036;-87
2020/12/23 02:05:07;;;;;;;41.22;26.45;;;;;;;13.85;65.88;101298.91;5078314;28;20024;-85
2020/12/23 02:07:34;;;;;;;49.67;28.58;;;;;;;13.92;65.63;101305.25;5063362;28;20492;-87
2020/12/23 02:10:03;;;;;;;48.85;29.58;;;;;;;13.93;65.66;101300.59;5081369;28;20903;-87
2020/12/23 02:12:28;;;;;;;58.67;32.05;;;;;;;13.84;66.16;101291.78;5081797;28;20031;-86
2020/12/23 02:14:54;;;;;;;60.38;32.88;;;;;;;13.82;66.02;101282.09;5060817;28;20118;-87
2020/12/23 02:17:21;;;;;;;76.80;37.97;;;;;;;13.76;66.44;101278.28;5062648;28;20044;-86
2020/12/23 02:19:49;;;;;;;80.40;36.70;;;;;;;13.84;66.40;101279.97;5043603;28;20020;-86
2020/12/23 02:22:30;;;;;;;76.28;35.08;;;;;;;13.92;66.21;101286.09;5078310;28;20035;-85
2020/12/23 02:24:56;;;;;;;88.15;36.58;;;;;;;13.93;66.20;101267.78;5080175;28;20106;-84
2020/12/23 02:27:23;;;;;;;82.25;34.88;;;;;;;13.75;66.96;101261.03;5079556;28;20131;-84
2020/12/23 02:29:50;;;;;;;58.97;30.63;;;;;;;13.67;67.02;101246.72;5080091;28;20040;-85
2020/12/23 02:32:16;;;;;;;61.45;26.83;;;;;;;13.79;66.85;101253.25;5061146;28;20096;-84
2020/12/23 02:34:42;;;;;;;70.40;29.17;;;;;;;13.69;66.92;101244.63;5061208;28;20032;-88
2020/12/23 02:37:09;;;;;;;78.63;32.83;;;;;;;13.36;67.78;101223.50;5079766;28;20044;-84
2020/12/23 02:39:39;;;;;;;74.95;37.15;;;;;;;13.53;67.42;101235.78;5082027;28;20740;-83
2020/12/23 02:42:06;;;;;;;70.30;32.40;;;;;;;13.57;67.34;101237.03;5043839;28;20062;-83
2020/12/23 02:44:32;;;;;;;69.70;31.85;;;;;;;13.54;67.27;101231.97;5084781;28;20063;-84
2020/12/23 02:46:59;;;;;;;64.47;29.52;;;;;;;13.61;67.37;101238.31;5083404;28;20123;-84
2020/12/23 02:49:26;;;;;;;72.90;32.95;;;;;;;13.36;68.16;101237.16;5082944;28;20598;-87
2020/12/23 02:51:52;;;;;;;72.30;34.17;;;;;;;13.50;67.62;101224.38;5059690;28;20031;-86
2020/12/23 02:54:17;;;;;;;85.47;33.65;;;;;;;13.58;67.34;101238.72;5079515;28;20904;-83
2020/12/23 02:56:43;;;;;;;76.28;35.08;;;;;;;13.54;67.31;101220.22;5062455;28;20068;-85
2020/12/23 02:59:09;;;;;;;75.93;36.83;;;;;;;13.55;67.64;101227.38;5064827;28;20028;-84
2020/12/23 03:01:35;;;;;;;91.53;39.38;;;;;;;13.61;67.39;101215.59;5067840;28;20855;-85
2020/12/23 03:04:01;;;;;;;88.65;41.60;;;;;;;13.68;67.30;101234.75;5064873;28;20089;-85
2020/12/23 03:06:27;;;;;;;91.35;40.70;;;;;;;13.52;67.94;101217.69;5052949;28;20143;-84
2020/12/23 03:08:53;;;;;;;88.43;41.67;;;;;;;13.56;67.68;101213.50;5063191;28;20032;-83
2020/12/23 03:11:19;;;;;;;78.90;39.80;;;;;;;13.71;67.62;101218.75;5082719;28;20035;-86
2020/12/23 03:13:44;;;;;;;85.20;39.05;;;;;;;13.60;67.68;101212.00;5085311;28;20493;-83
2020/12/23 03:16:09;;;;;;;82.70;37.78;;;;;;;13.39;68.62;101207.56;5070277;28;20032;-86
2020/12/23 03:18:35;;;;;;;85.65;38.83;;;;;;;13.48;68.69;101207.38;5045177;28;20032;-85
2020/12/23 03:21:00;;;;;;;84.22;36.95;;;;;;;13.62;67.97;101198.13;5050613;28;20085;-86
2020/12/23 03:23:26;;;;;;;81.18;40.67;;;;;;;13.46;68.53;101206.75;5052553;28;20036;-84
2020/12/23 03:25:51;;;;;;;87.57;42.75;;;;;;;13.34;68.76;101209.22;5050344;28;20460;-82
2020/12/23 03:28:16;;;;;;;82.80;38.22;;;;;;;13.57;68.32;101215.16;5087463;28;20040;-84
2020/12/23 03:30:42;;;;;;;82.60;40.45;;;;;;;13.28;69.46;101210.84;5053927;28;20028;-86
2020/12/23 03:33:07;;;;;;;83.10;42.05;;;;;;;13.36;69.00;101202.53;5086920;28;20020;-86
2020/12/23 03:35:33;;;;;;;85.50;44.92;;;;;;;13.45;68.76;101191.38;5051961;28;20051;-83
2020/12/23 03:37:58;;;;;;;79.53;41.20;;;;;;;13.30;69.19;101186.91;5068429;28;20036;-85
2020/12/23 03:40:23;;;;;;;75.70;38.40;;;;;;;13.20;69.25;101175.53;5066127;28;20048;-83
2020/12/23 03:42:49;;;;;;;66.00;33.92;;;;;;;13.40;68.88;101176.44;5069524;28;20040;-85
2020/12/23 03:45:14;;;;;;;63.63;33.25;;;;;;;13.49;68.67;101179.84;5075222;28;20120;-84
2020/12/23 03:47:39;;;;;;;77.60;37.92;;;;;;;13.58;68.17;101166.84;5065694;28;20036;-84
2020/12/23 03:50:05;;;;;;;69.82;37.40;;;;;;;13.64;68.30;101167.88;5068329;28;20410;-85
2020/12/23 03:52:31;;;;;;;76.45;39.28;;;;;;;13.51;68.64;101164.06;5063702;28;20482;-84
2020/12/23 03:54:56;;;;;;;67.40;35.08;;;;;;;13.32;69.37;101153.94;5053412;28;20436;-82
2020/12/23 03:57:21;;;;;;;81.45;38.67;;;;;;;13.33;69.30;101161.97;5081787;28;20036;-84
2020/12/23 03:59:47;;;;;;;70.10;36.33;;;;;;;13.50;68.72;101151.47;5087242;28;20399;-84
2020/12/23 04:02:12;;;;;;;73.55;37.67;;;;;;;13.75;68.06;101165.38;5053823;28;20584;-85
2020/12/23 04:04:38;;;;;;;78.82;39.53;;;;;;;13.73;67.83;101163.88;5084459;28;20037;-84
2020/12/23 04:07:03;;;;;;;83.05;40.50;;;;;;;13.60;68.03;101149.16;5083600;28;20032;-85
2020/12/23 04:09:28;;;;;;;72.22;37.30;;;;;;;13.64;68.23;101143.28;5081386;28;20207;-83
2020/12/23 04:11:54;;;;;;;80.18;40.38;;;;;;;13.68;68.06;101155.47;5064695;28;20036;-83
2020/12/23 04:14:20;;;;;;;72.38;38.67;;;;;;;13.76;67.89;101147.91;5081701;28;20047;-83
2020/12/23 04:16:45;;;;;;;75.15;39.08;;;;;;;13.78;67.90;101154.00;5068752;28;20439;-84
2020/12/23 04:19:11;;;;;;;85.93;39.40;;;;;;;13.68;67.79;101134.44;5050479;28;20039;-83
2020/12/23 04:21:36;;;;;;;91.50;42.72;;;;;;;13.75;68.17;101154.44;5066551;28;20391;-83
2020/12/23 04:24:01;;;;;;;85.00;43.42;;;;;;;13.78;67.90;101139.50;5061639;28;20032;-84
2020/12/23 04:26:27;;;;;;;92.10;42.67;;;;;;;13.85;67.78;101145.78;5084957;28;20035;-84
2020/12/23 04:28:52;;;;;;;91.65;42.92;;;;;;;13.63;68.05;101138.88;5049335;28;20167;-82
2020/12/23 04:31:18;;;;;;;76.25;36.75;;;;;;;13.74;68.33;101127.31;5061851;28;20125;-83
2020/12/23 04:33:43;;;;;;;66.43;37.10;;;;;;;13.75;68.33;101132.56;5060906;28;20482;-83
2020/12/23 04:36:08;;;;;;;63.38;34.58;;;;;;;13.84;68.05;101125.00;5050934;28;20044;-84
2020/12/23 04:38:34;;;;;;;64.70;36.80;;;;;;;13.76;68.08;101103.31;5065817;28;20036;-83
2020/12/23 04:41:00;;;;;;;65.55;34.67;;;;;;;13.64;68.50;101102.28;5065612;28;20052;-83
2020/12/23 04:43:26;;;;;;;76.07;38.08;;;;;;;13.70;68.47;101117.84;5082515;28;20543;-83
2020/12/23 04:45:52;;;;;;;65.20;36.63;;;;;;;13.82;67.83;101123.53;5063457;28;20035;-84
2020/12/23 04:48:24;;;;;;;63.13;34.92;;;;;;;13.87;68.25;101120.97;5050948;28;20024;-83
2020/12/23 04:50:54;;;;;;;55.20;32.92;;;;;;;13.76;68.41;101103.31;5085158;28;20020;-83
2020/12/23 04:53:20;;;;;;;61.08;34.97;;;;;;;13.65;68.76;101093.03;5064181;28;20024;-82
2020/12/23 04:55:45;;;;;;;67.35;38.13;;;;;;;13.73;68.77;101099.13;5084948;28;20036;-82
2020/12/23 04:58:11;;;;;;;58.33;32.53;;;;;;;13.69;68.69;101094.31;5084549;28;20024;-83
2020/12/23 05:00:37;;;;;;;55.53;33.42;;;;;;;13.84;68.50;101094.94;5069963;28;20405;-84
2020/12/23 05:03:02;;;;;;;56.90;32.55;;;;;;;13.91;68.34;101083.97;5063887;28;20036;-84
2020/12/23 05:05:28;;;;;;;55.65;33.47;;;;;;;13.71;68.92;101087.56;5071324;28;20472;-82
2020/12/23 05:07:54;;;;;;;58.17;33.03;;;;;;;13.84;68.63;101081.25;5084416;28;20032;-83
2020/12/23 05:10:20;;;;;;;55.53;33.80;;;;;;;13.89;68.51;101080.63;5084368;28;20024;-84
2020/12/23 05:12:46;;;;;;;62.38;36.33;;;;;;;14.01;68.10;101091.72;5065367;28;20063;-84
2020/12/23 05:15:12;;;;;;;62.45;35.30;;;;;;;13.95;67.94;101088.81;5066931;28;20047;-84
2020/12/23 05:17:39;;;;;;;55.05;33.60;;;;;;;14.03;68.01;101095.94;5063857;28;20394;-86
2020/12/23 05:20:07;;;;;;;62.90;36.08;;;;;;;13.95;67.80;101075.13;5048786;28;20073;-83
2020/12/23 05:22:33;;;;;;;64.07;39.58;;;;;;;14.05;67.76;101082.06;5081181;28;20057;-85
2020/12/23 05:25:00;;;;;;;61.72;35.45;;;;;;;14.00;68.28;101090.06;5079439;28;20135;-85
2020/12/23 05:27:26;;;;;;;65.53;38.85;;;;;;;13.85;68.46;101069.25;5047360;28;20428;-82
2020/12/23 05:29:51;;;;;;;77.78;39.80;;;;;;;13.83;68.55;101076.00;5083766;28;20025;-85
2020/12/23 05:32:17;;;;;;;72.90;39.40;;;;;;;13.88;68.29;101055.16;5070948;28;20067;-85
2020/12/23 05:34:43;;;;;;;73.57;41.47;;;;;;;13.83;68.32;101063.16;5083813;28;20043;-84
2020/12/23 05:37:09;;;;;;;72.32;37.97;;;;;;;13.95;68.14;101061.47;5083480;28;20075;-85
2020/12/23 05:39:35;;;;;;;83.78;42.40;;;;;;;13.93;68.13;101047.16;5078442;28;20059;-84
2020/12/23 05:42:01;;;;;;;72.72;42.10;;;;;;;14.02;67.89;101055.13;5065069;28;20032;-83
2020/12/23 05:44:28;;;;;;;69.72;38.25;;;;;;;14.02;68.04;101049.66;5073482;28;20029;-83
2020/12/23 05:46:54;;;;;;;76.75;39.30;;;;;;;14.09;68.00;101055.97;5078403;28;20074;-85
2020/12/23 05:49:22;;;;;;;80.97;39.95;;;;;;;13.98;67.69;101038.31;5084974;28;20039;-82
2020/12/23 05:51:49;;;;;;;74.93;42.00;;;;;;;14.10;68.21;101052.16;5082241;28;20399;-83
2020/12/23 05:54:17;;;;;;;82.45;41.45;;;;;;;14.03;67.82;101027.56;5084555;28;20381;-83
2020/12/23 05:56:43;;;;;;;74.63;41.72;;;;;;;14.04;68.33;101042.94;5079789;28;20032;-83
2020/12/23 05:59:09;;;;;;;67.53;38.65;;;;;;;14.00;68.51;101049.88;5066968;28;20035;-82
2020/12/23 06:01:36;;;;;;;70.00;39.17;;;;;;;14.11;68.00;101053.84;5083973;28;20126;-82
2020/12/23 06:04:12;;;;;;;66.43;35.05;;;;;;;14.15;67.78;101047.72;5067877;28;20206;-82
2020/12/23 06:06:42;;;;;;;75.40;39.55;;;;;;;14.17;67.72;101058.47;5083632;28;20027;-83
2020/12/23 06:09:09;;;;;;;80.67;37.63;;;;;;;14.04;67.76;101044.81;5082268;28;20120;-82
2020/12/23 06:11:47;;;;;;;75.32;36.22;;;;;;;14.18;67.91;101057.41;5079843;28;20028;-82
2020/12/23 06:14:37;;;;;;;73.97;40.03;;;;;;;14.12;68.15;101039.13;5081862;28;20081;-82
2020/12/23 06:17:04;;;;;;;74.17;37.77;;;;;;;14.17;68.29;101049.44;5057764;28;20036;-81
2020/12/23 06:19:36;;;;;;;87.93;38.72;;;;;;;14.08;68.28;101030.50;5083461;28;20047;-82
2020/12/23 06:22:03;;;;;;;82.13;38.30;;;;;;;14.21;68.16;101037.84;5078820;28;20039;-82
2020/12/23 06:24:28;;;;;;;79.60;35.05;;;;;;;14.29;67.98;101040.31;5083834;28;20501;-83
2020/12/23 06:26:57;;;;;;;80.97;40.40;;;;;;;14.26;67.95;101029.81;5080198;28;20032;-83
2020/12/23 06:29:25;;;;;;;76.60;37.50;;;;;;;14.15;68.43;101028.59;5081067;28;20044;-82
2020/12/23 06:31:56;;;;;;;71.47;36.30;;;;;;;14.26;68.10;101020.78;5080848;28;20027;-83
2020/12/23 06:34:33;;;;;;;86.47;38.42;;;;;;;14.28;68.22;101021.38;5082588;28;20608;-82
2020/12/23 06:36:59;;;;;;;79.43;38.47;;;;;;;14.30;68.15;101020.13;5080866;28;20051;-82
2020/12/23 06:39:24;;;;;;;81.57;37.10;;;;;;;14.31;68.08;101016.31;5064932;28;20040;-82
2020/12/23 06:41:52;;;;;;;76.55;35.42;;;;;;;14.19;68.04;100993.44;5083605;28;20088;-82
2020/12/23 06:44:18;;;;;;;75.55;36.80;;;;;;;14.19;67.93;100998.91;5082578;28;20029;-82
2020/12/23 06:46:58;;;;;;;66.72;34.38;;;;;;;14.33;67.80;101019.69;5062975;28;20398;-83
2020/12/23 06:49:36;;;;;;;81.50;37.08;;;;;;;14.30;67.83;101013.78;5081994;28;20399;-82
2020/12/23 06:52:22;;;;;;;71.82;33.85;;;;;;;14.22;67.85;101006.66;5083949;28;20028;-82
2020/12/23 06:55:07;;;;;;;71.88;35.03;;;;;;;14.29;67.77;101014.88;5064446;28;20036;-83
2020/12/23 06:57:35;;;;;;;58.85;31.67;;;;;;;14.30;67.90;101017.38;5080041;28;20036;-83
2020/12/23 07:00:15;;;;;;;64.25;32.88;;;;;;;14.27;67.76;101008.75;5083564;28;20024;-82
2020/12/23 07:02:40;;;;;;;65.93;34.25;;;;;;;14.28;67.83;101005.81;5062395;28;20033;-82
2020/12/23 07:05:06;;;;;;;80.93;35.08;;;;;;;14.24;67.86;100992.78;5075940;28;20035;-82
2020/12/23 07:07:40;;;;;;;62.58;31.67;;;;;;;14.31;67.87;100986.22;5082038;28;20117;-82
2020/12/23 07:10:15;;;;;;;68.30;32.72;;;;;;;14.28;67.73;100992.13;5083764;28;20059;-82
2020/12/23 07:12:54;;;;;;;60.58;32.70;;;;;;;14.30;67.75;100990.03;5081803;28;20042;-82
2020/12/23 07:15:24;;;;;;;69.50;34.45;;;;;;;14.25;67.81;100972.56;5079646;28;20545;-82
2020/12/23 07:17:57;;;;;;;64.18;33.58;;;;;;;14.15;68.44;100956.66;5067016;28;20407;-83
2020/12/23 07:20:24;;;;;;;72.60;33.13;;;;;;;14.12;68.03;100949.69;5083440;28;20151;-81
2020/12/23 07:22:51;;;;;;;50.97;29.70;;;;;;;14.18;68.60;100956.22;5082896;28;20114;-82
2020/12/23 07:25:26;;;;;;;56.33;30.25;;;;;;;14.19;68.18;100946.94;5035560;28;20081;-82
2020/12/23 07:27:56;;;;;;;53.50;30.02;;;;;;;14.39;67.97;100971.44;5081418;28;20103;-82
2020/12/23 07:30:22;;;;;;;57.17;33.92;;;;;;;14.38;67.95;100975.25;5085030;28;20424;-82
2020/12/23 07:33:15;;;;;;;56.85;33.50;;;;;;;14.47;67.78;100973.09;5080419;28;20036;-82
2020/12/23 07:35:44;;;;;;;51.65;31.95;;;;;;;14.45;67.87;100972.47;5083060;28;20509;-80
2020/12/23 07:38:09;;;;;;;56.08;35.42;;;;;;;14.48;67.90;100974.78;5081314;28;20042;-82
2020/12/23 07:40:35;;;;;;;51.53;31.63;;;;;;;14.44;68.04;100968.06;5048946;28;20055;-82
2020/12/23 07:43:01;;;;;;;47.58;31.48;;;;;;;14.49;68.25;100984.69;5081016;28;20047;-82
2020/12/23 07:45:29;;;;;;;51.55;31.52;;;;;;;14.57;68.04;100989.88;5082909;28;20482;-82
2020/12/23 07:48:02;;;;;;;46.65;29.92;;;;;;;14.59;67.92;100993.22;5080040;28;20536;-81
2020/12/23 07:50:30;;;;;;;48.88;30.08;;;;;;;14.56;67.73;100984.63;5064955;28;20064;-81
2020/12/23 07:52:56;;;;;;;50.10;30.15;;;;;;;14.57;68.03;100987.16;5083434;28;20024;-82
2020/12/23 07:55:23;;;;;;;48.88;30.95;;;;;;;14.54;67.98;100973.06;5083167;28;20047;-82
2020/12/23 07:57:52;;;;;;;50.35;30.90;;;;;;;14.57;68.21;100984.41;5082733;28;20036;-82
2020/12/23 08:00:19;;;;;;;43.63;28.08;;;;;;;14.60;67.92;100983.13;5082093;28;20024;-82
2020/12/23 08:02:45;;;;;;;44.25;28.17;;;;;;;14.60;67.80;100977.66;5051536;28;20027;-82
2020/12/23 08:05:14;;;;;;;45.10;27.67;;;;;;;14.55;68.02;100970.13;5066595;28;20090;-82
2020/12/23 08:07:44;;;;;;;44.05;29.08;;;;;;;14.55;68.22;100969.25;5085377;28;20036;-82
2020/12/23 08:10:20;;;;;;;48.50;29.00;;;;;;;14.59;68.20;100963.13;5082996;28;20549;-82
2020/12/23 08:12:59;;;;;;;42.67;28.65;;;;;;;14.69;67.93;100968.16;5083944;28;20031;-82
2020/12/23 08:15:25;;;;;;;43.40;28.45;;;;;;;14.61;68.26;100963.78;5083529;28;20093;-82
2020/12/23 08:18:05;;;;;;;47.15;29.17;;;;;;;14.71;68.19;100965.22;5080137;28;20107;-82
2020/12/23 08:20:31;;;;;;;41.58;26.67;;;;;;;14.68;68.11;100959.09;5085665;28;20040;-81
2020/12/23 08:22:58;;;;;;;42.67;27.63;;;;;;;14.73;68.20;100966.66;5063268;28;20044;-82
2020/12/23 08:25:25;;;;;;;39.30;26.10;;;;;;;14.77;67.86;100961.59;5077064;28;20032;-82
2020/12/23 08:27:52;;;;;;;41.35;27.63;;;;;;;14.70;67.93;100955.31;5067058;28;20024;-81
2020/12/23 08:30:29;;;;;;;54.53;25.50;;;;;;;14.73;68.26;100954.88;5069655;28;20494;-82
2020/12/23 08:33:28;;;;;;;42.17;28.15;;;;;;;14.70;68.32;100960.78;5065306;28;20032;-83
2020/12/23 08:36:01;;;;;;;46.50;27.67;;;;;;;14.66;68.56;100955.75;5038217;28;20047;-81
2020/12/23 08:38:27;;;;;;;42.67;29.42;;;;;;;14.67;68.55;100951.09;5085270;28;20104;-81
2020/12/23 08:40:55;;;;;;;39.45;26.67;;;;;;;14.77;68.19;100958.84;5084122;28;20502;-80
2020/12/23 08:43:26;;;;;;;39.00;27.15;;;;;;;14.75;68.08;100950.00;5085395;28;20038;-82
2020/12/23 08:45:58;;;;;;;37.65;24.83;;;;;;;14.65;68.49;100947.75;5085303;28;20027;-83
2020/12/23 08:48:26;;;;;;;36.78;27.10;;;;;;;14.63;68.72;100944.41;5081521;28;20119;-81
2020/12/23 08:51:03;;;;;;;39.88;28.08;;;;;;;14.71;68.35;100940.56;5065774;28;20032;-82
2020/12/23 08:53:37;;;;;;;39.35;28.70;;;;;;;14.70;68.57;100949.84;5064261;28;20050;-82
2020/12/23 08:56:26;;;;;;;36.83;24.80;;;;;;;14.81;68.16;100952.72;5085148;28;20063;-82
2020/12/23 08:58:59;;;;;;;29.63;22.98;;;;;;;14.85;68.16;100944.88;5084324;28;20418;-81
2020/12/23 09:01:26;;;;;;;33.67;24.48;;;;;;;14.93;68.16;100946.50;5083610;28;20023;-82
2020/12/23 09:04:04;;;;;;;25.85;20.08;;;;;;;14.97;67.87;100950.47;5085313;28;20032;-82
2020/12/23 09:06:30;;;;;;;25.67;20.83;;;;;;;14.97;68.03;100945.84;5081685;28;20080;-82
2020/12/23 09:09:05;;;;;;;22.42;17.50;;;;;;;15.06;68.28;100942.81;5071048;28;20036;-82
2020/12/23 09:11:42;;;;;;;18.85;16.17;;;;;;;15.08;68.51;100941.53;5063489;28;20043;-82
2020/12/23 09:14:14;;;;;;;19.30;16.17;;;;;;;15.13;68.76;100938.94;5059383;28;20036;-83
2020/12/23 09:16:53;;;;;;;15.52;13.52;;;;;;;15.16;68.86;100924.81;5084486;28;20024;-82
2020/12/23 09:19:19;;;;;;;10.20;9.20;;;;;;;15.15;69.92;100920.41;5066325;28;20081;-82
2020/12/23 09:21:54;;;;;;;7.18;6.60;;;;;;;15.24;69.76;100909.97;5083634;28;20028;-81
2020/12/23 09:24:23;;;;;;;18.92;8.02;;;;;;;15.34;69.42;100893.88;5069104;28;20028;-82
2020/12/23 09:26:48;;;;;;;8.25;7.55;;;;;;;15.47;69.61;100905.75;5083795;28;20051;-84
2020/12/23 09:29:14;;;;;;;8.82;7.85;;;;;;;15.44;70.04;100907.03;5060855;28;20039;-83
2020/12/23 09:31:49;;;;;;;8.68;7.78;;;;;;;15.58;69.39;100904.97;5049504;28;20038;-83
2020/12/23 09:34:21;;;;;;;9.30;8.40;;;;;;;15.66;69.26;100901.97;5084708;28;20085;-82
2020/12/23 09:36:54;;;;;;;13.15;11.23;;;;;;;15.61;69.68;100906.44;5082332;28;20094;-82
2020/12/23 09:39:19;;;;;;;10.95;8.23;;;;;;;15.73;69.34;100904.59;5082777;28;20035;-81
2020/12/23 09:41:44;;;;;;;12.05;10.15;;;;;;;15.78;69.42;100907.53;5082268;28;20432;-82
2020/12/23 09:44:10;;;;;;;10.25;9.20;;;;;;;15.78;68.97;100890.25;5083167;28;20039;-82
2020/12/23 09:46:35;;;;;;;12.75;10.55;;;;;;;15.89;68.86;100898.50;5084438;28;20043;-83
2020/12/23 09:49:01;;;;;;;11.00;9.45;;;;;;;15.92;68.74;100909.03;5084387;28;20081;-83
2020/12/23 09:51:26;;;;;;;12.15;10.30;;;;;;;15.89;68.81;100904.00;5065074;28;20398;-83
2020/12/23 09:53:51;;;;;;;10.07;9.15;;;;;;;15.91;68.74;100901.88;5082456;28;20067;-83
2020/12/23 09:56:17;;;;;;;9.77;8.48;;;;;;;15.90;68.80;100900.19;5082080;28;20036;-83
2020/12/23 09:58:42;;;;;;;9.75;8.75;;;;;;;15.83;68.69;100893.13;5064981;28;20110;-83
2020/12/23 10:01:08;;;;;;;9.50;8.02;;;;;;;15.92;68.83;100897.22;5065833;28;20032;-82
2020/12/23 10:03:33;;;;;;;10.98;8.75;;;;;;;15.84;68.99;100889.31;5048421;28;20444;-81
2020/12/23 10:05:59;;;;;;;10.27;9.23;;;;;;;15.99;68.53;100886.16;5061526;28;20036;-82
2020/12/23 10:08:24;;;;;;;8.43;7.47;;;;;;;16.00;68.92;100885.09;5081359;28;20032;-82
2020/12/23 10:10:50;;;;;;;8.15;7.32;;;;;;;16.04;68.72;100872.59;5051852;28;20028;-83
2020/12/23 10:13:15;;;;;;;9.07;7.57;;;;;;;16.04;68.80;100873.44;5060136;28;20028;-82
2020/12/23 10:15:41;;;;;;;20.85;10.13;;;;;;;16.00;68.92;100860.41;5081873;28;20471;-81
2020/12/23 10:18:06;;;;;;;10.32;9.32;;;;;;;16.11;68.69;100862.34;5079605;28;20032;-83
2020/12/23 10:20:32;;;;;;;29.55;11.68;;;;;;;16.05;68.58;100858.66;5064985;28;20581;-81
2020/12/23 10:22:58;;;;;;;10.55;9.45;;;;;;;16.15;68.36;100847.09;5064991;28;20032;-83
2020/12/23 10:25:23;;;;;;;10.77;9.75;;;;;;;16.16;68.19;100848.78;5044948;28;20051;-83
2020/12/23 10:27:48;;;;;;;8.10;7.43;;;;;;;16.17;68.49;100846.88;5064828;28;22106;-81
2020/12/23 10:30:14;;;;;;;12.48;8.43;;;;;;;16.23;68.27;100843.19;5062733;28;20063;-81
2020/12/23 10:32:39;;;;;;;9.85;8.88;;;;;;;16.29;68.21;100845.00;5065864;28;20081;-81
2020/12/23 10:35:07;;;;;;;8.77;8.00;;;;;;;16.30;68.09;100838.44;5083734;28;20024;-81
2020/12/23 10:37:32;;;;;;;10.48;9.55;;;;;;;16.28;68.13;100830.44;5084488;28;20451;-80
2020/12/23 10:39:58;;;;;;;11.13;9.95;;;;;;;16.36;68.03;100829.28;5077973;28;20489;-81
2020/12/23 10:42:27;;;;;;;11.52;10.43;;;;;;;16.28;68.01;100818.63;5083684;28;20081;-80
2020/12/23 10:44:52;;;;;;;14.93;12.07;;;;;;;16.31;67.99;100823.63;5062117;28;20060;-80
2020/12/23 10:47:17;;;;;;;11.77;10.68;;;;;;;16.39;67.91;100826.06;5062053;28;20049;-80
2020/12/23 10:49:43;;;;;;;17.33;15.63;;;;;;;16.35;68.12;100819.38;5080846;28;20040;-80
2020/12/23 10:52:08;;;;;;;18.42;16.42;;;;;;;16.36;68.13;100815.56;5076192;28;20054;-82
2020/12/23 10:54:33;;;;;;;17.13;15.52;;;;;;;16.43;68.03;100805.28;5062496;28;20059;-81
2020/12/23 10:56:59;;;;;;;20.48;18.25;;;;;;;16.37;67.88;100798.00;5058111;28;20375;-82
2020/12/23 10:59:25;;;;;;;19.38;17.42;;;;;;;16.35;67.88;100794.66;5083180;28;20139;-81
2020/12/23 11:01:54;;;;;;;20.27;17.02;;;;;;;16.44;67.87;100792.41;5058470;28;20339;-81
2020/12/23 11:04:20;;;;;;;20.85;18.85;;;;;;;16.40;67.99;100781.06;5080874;28;20044;-80
2020/12/23 11:06:52;;;;;;;22.02;19.90;;;;;;;16.41;68.16;100781.91;5077859;28;20553;-81
2020/12/23 11:09:19;;;;;;;21.08;18.95;;;;;;;16.43;67.80;100782.50;5081870;28;21126;-81
2020/12/23 11:11:55;;;;;;;21.17;19.08;;;;;;;16.37;68.00;100764.22;5083225;28;20059;-81